sensor_id;sensor_type;location;lat;lon;timestamp;temperature;humidity
16384;DHT22;8301;51.440;6.610;2023-04-28T00:01:11;9.90;1.00
16384;DHT22;8301;51.440;6.610;2023-04-28T00:03:40;9.80;1.00
16384;DHT22;8301;51.440;6.610;2023-04-28T00:06:07;9.80;99.90
16384;DHT22;8301;51.440;6.610;2023-04-28T00:08:33;9.70;99.90
16384;DHT22;8301;51.440;6.610;2023-04-28T00:11:01;9.70;99.90
16384;DHT22;8301;51.440;6.610;2023-04-28T00:13:28;9.70;1.00
16384;DHT22;8301;51.440;6.610;2023-04-28T00:15:58;9.70;3.70
16384;DHT22;8301;51.440;6.610;2023-04-28T00:18:24;9.70;1.00
16384;DHT22;8301;51.440;6.610;2023-04-28T00:20:51;9.60;1.00
16384;DHT22;8301;51.440;6.610;2023-04-28T00:23:18;9.60;1.00
16384;DHT22;8301;51.440;6.610;2023-04-28T00:25:49;9.60;1.00
16384;DHT22;8301;51.440;6.610;2023-04-28T00:28:13;9.60;99.90
16384;DHT22;8301;51.440;6.610;2023-04-28T00:30:40;9.60;1.00
16384;DHT22;8301;51.440;6.610;2023-04-28T00:33:07;9.50;64.00
16384;DHT22;8301;51.440;6.610;2023-04-28T00:35:34;9.50;1.00
16384;DHT22;8301;51.440;6.610;2023-04-28T00:38:01;9.50;99.90
16384;DHT22;8301;51.440;6.610;2023-04-28T00:40:34;9.40;1.00
16384;DHT22;8301;51.440;6.610;2023-04-28T00:43:01;9.40;1.00
16384;DHT22;8301;51.440;6.610;2023-04-28T00:45:28;9.00;99.90
16384;DHT22;8301;51.440;6.610;2023-04-28T00:47:55;9.00;99.90
16384;DHT22;8301;51.440;6.610;2023-04-28T00:50:23;9.10;1.00
16384;DHT22;8301;51.440;6.610;2023-04-28T00:52:50;9.10;99.90
16384;DHT22;8301;51.440;6.610;2023-04-28T00:55:17;9.10;99.90
16384;DHT22;8301;51.440;6.610;2023-04-28T00:57:45;9.10;1.00
16384;DHT22;8301;51.440;6.610;2023-04-28T01:00:12;9.10;99.90
16384;DHT22;8301;51.440;6.610;2023-04-28T01:02:40;9.10;99.90
16384;DHT22;8301;51.440;6.610;2023-04-28T01:05:07;9.00;1.00
16384;DHT22;8301;51.440;6.610;2023-04-28T01:07:36;9.00;1.00
16384;DHT22;8301;51.440;6.610;2023-04-28T01:10:03;9.10;99.90
16384;DHT22;8301;51.440;6.610;2023-04-28T01:12:30;9.00;99.90
16384;DHT22;8301;51.440;6.610;2023-04-28T01:14:58;8.90;99.90
16384;DHT22;8301;51.440;6.610;2023-04-28T01:17:25;8.90;99.90
16384;DHT22;8301;51.440;6.610;2023-04-28T01:19:52;9.00;87.50
16384;DHT22;8301;51.440;6.610;2023-04-28T01:22:19;9.00;99.90
16384;DHT22;8301;51.440;6.610;2023-04-28T01:24:45;9.00;99.90
16384;DHT22;8301;51.440;6.610;2023-04-28T01:27:12;9.00;99.90
16384;DHT22;8301;51.440;6.610;2023-04-28T01:29:39;9.00;99.90
16384;DHT22;8301;51.440;6.610;2023-04-28T01:32:06;9.00;99.90
16384;DHT22;8301;51.440;6.610;2023-04-28T01:34:33;9.00;99.90
16384;DHT22;8301;51.440;6.610;2023-04-28T01:37:00;9.00;99.90
16384;DHT22;8301;51.440;6.610;2023-04-28T01:39:27;8.90;99.90
16384;DHT22;8301;51.440;6.610;2023-04-28T01:41:53;8.80;99.90
16384;DHT22;8301;51.440;6.610;2023-04-28T01:44:20;8.80;99.90
16384;DHT22;8301;51.440;6.610;2023-04-28T01:46:47;8.80;99.90
16384;DHT22;8301;51.440;6.610;2023-04-28T01:49:14;8.80;99.90
16384;DHT22;8301;51.440;6.610;2023-04-28T01:51:41;8.90;99.90
16384;DHT22;8301;51.440;6.610;2023-04-28T01:54:08;8.80;99.90
16384;DHT22;8301;51.440;6.610;2023-04-28T01:56:35;8.80;99.90
16384;DHT22;8301;51.440;6.610;2023-04-28T01:59:02;8.70;99.90
16384;DHT22;8301;51.440;6.610;2023-04-28T02:01:28;8.70;99.90
16384;DHT22;8301;51.440;6.610;2023-04-28T02:03:55;8.60;99.90
16384;DHT22;8301;51.440;6.610;2023-04-28T02:06:22;8.70;99.90
16384;DHT22;8301;51.440;6.610;2023-04-28T02:08:49;8.70;99.90
16384;DHT22;8301;51.440;6.610;2023-04-28T02:11:18;8.70;99.90
16384;DHT22;8301;51.440;6.610;2023-04-28T02:13:45;8.70;99.90
16384;DHT22;8301;51.440;6.610;2023-04-28T02:16:12;8.70;99.90
16384;DHT22;8301;51.440;6.610;2023-04-28T02:18:41;8.70;99.90
16384;DHT22;8301;51.440;6.610;2023-04-28T02:21:08;8.80;99.90
16384;DHT22;8301;51.440;6.610;2023-04-28T02:23:36;8.80;99.90
16384;DHT22;8301;51.440;6.610;2023-04-28T02:26:03;8.80;99.90
16384;DHT22;8301;51.440;6.610;2023-04-28T02:28:31;8.80;99.90
16384;DHT22;8301;51.440;6.610;2023-04-28T02:31:07;8.80;99.90
16384;DHT22;8301;51.440;6.610;2023-04-28T02:33:35;8.80;99.90
16384;DHT22;8301;51.440;6.610;2023-04-28T02:36:02;8.90;99.90
16384;DHT22;8301;51.440;6.610;2023-04-28T02:38:29;8.80;99.90
16384;DHT22;8301;51.440;6.610;2023-04-28T02:40:57;8.80;99.90
16384;DHT22;8301;51.440;6.610;2023-04-28T02:43:24;8.80;99.90
16384;DHT22;8301;51.440;6.610;2023-04-28T02:45:52;8.80;99.90
16384;DHT22;8301;51.440;6.610;2023-04-28T02:48:20;8.80;99.90
16384;DHT22;8301;51.440;6.610;2023-04-28T02:50:46;8.80;99.90
16384;DHT22;8301;51.440;6.610;2023-04-28T02:53:13;8.80;99.90
16384;DHT22;8301;51.440;6.610;2023-04-28T02:55:44;8.80;99.90
16384;DHT22;8301;51.440;6.610;2023-04-28T02:58:08;8.90;99.90
16384;DHT22;8301;51.440;6.610;2023-04-28T03:00:36;8.90;99.90
16384;DHT22;8301;51.440;6.610;2023-04-28T03:03:03;8.90;99.90
16384;DHT22;8301;51.440;6.610;2023-04-28T03:05:30;8.90;99.90
16384;DHT22;8301;51.440;6.610;2023-04-28T03:07:57;8.90;99.90
16384;DHT22;8301;51.440;6.610;2023-04-28T03:10:24;8.90;99.90
16384;DHT22;8301;51.440;6.610;2023-04-28T03:12:52;9.00;99.90
16384;DHT22;8301;51.440;6.610;2023-04-28T03:15:18;9.00;99.90
16384;DHT22;8301;51.440;6.610;2023-04-28T03:17:45;9.00;99.90
16384;DHT22;8301;51.440;6.610;2023-04-28T03:20:12;9.00;99.90
16384;DHT22;8301;51.440;6.610;2023-04-28T03:22:39;9.00;99.90
16384;DHT22;8301;51.440;6.610;2023-04-28T03:25:06;8.90;99.90
16384;DHT22;8301;51.440;6.610;2023-04-28T03:27:33;8.90;99.90
16384;DHT22;8301;51.440;6.610;2023-04-28T03:29:59;8.90;99.90
16384;DHT22;8301;51.440;6.610;2023-04-28T03:32:26;8.90;99.90
16384;DHT22;8301;51.440;6.610;2023-04-28T03:34:53;8.80;99.90
16384;DHT22;8301;51.440;6.610;2023-04-28T03:37:20;8.90;99.90
16384;DHT22;8301;51.440;6.610;2023-04-28T03:39:47;8.90;99.90
16384;DHT22;8301;51.440;6.610;2023-04-28T03:42:14;8.90;99.90
16384;DHT22;8301;51.440;6.610;2023-04-28T03:44:41;8.90;99.90
16384;DHT22;8301;51.440;6.610;2023-04-28T03:47:08;8.90;99.90
16384;DHT22;8301;51.440;6.610;2023-04-28T03:49:34;9.00;99.90
16384;DHT22;8301;51.440;6.610;2023-04-28T03:52:01;8.90;99.90
16384;DHT22;8301;51.440;6.610;2023-04-28T03:54:29;9.00;99.90
16384;DHT22;8301;51.440;6.610;2023-04-28T03:56:59;9.00;99.90
16384;DHT22;8301;51.440;6.610;2023-04-28T03:59:27;9.00;99.90
16384;DHT22;8301;51.440;6.610;2023-04-28T04:01:53;9.00;99.90
16384;DHT22;8301;51.440;6.610;2023-04-28T04:04:20;9.00;99.90
16384;DHT22;8301;51.440;6.610;2023-04-28T04:06:47;9.00;99.90
16384;DHT22;8301;51.440;6.610;2023-04-28T04:09:14;9.00;99.90
16384;DHT22;8301;51.440;6.610;2023-04-28T04:11:41;9.10;99.90
16384;DHT22;8301;51.440;6.610;2023-04-28T04:14:08;9.10;99.90
16384;DHT22;8301;51.440;6.610;2023-04-28T04:16:35;9.20;99.90
16384;DHT22;8301;51.440;6.610;2023-04-28T04:19:02;9.20;99.90
16384;DHT22;8301;51.440;6.610;2023-04-28T04:21:29;9.20;99.90
16384;DHT22;8301;51.440;6.610;2023-04-28T04:23:56;9.20;99.90
16384;DHT22;8301;51.440;6.610;2023-04-28T04:26:23;9.20;99.90
16384;DHT22;8301;51.440;6.610;2023-04-28T04:28:50;9.20;99.90
16384;DHT22;8301;51.440;6.610;2023-04-28T04:31:17;9.30;99.90
16384;DHT22;8301;51.440;6.610;2023-04-28T04:33:47;9.30;99.90
16384;DHT22;8301;51.440;6.610;2023-04-28T04:36:14;9.40;99.90
16384;DHT22;8301;51.440;6.610;2023-04-28T04:38:41;9.40;99.90
16384;DHT22;8301;51.440;6.610;2023-04-28T04:41:08;9.50;99.90
16384;DHT22;8301;51.440;6.610;2023-04-28T04:43:34;9.50;99.90
16384;DHT22;8301;51.440;6.610;2023-04-28T04:46:02;9.50;99.90
16384;DHT22;8301;51.440;6.610;2023-04-28T04:48:28;9.50;99.90
16384;DHT22;8301;51.440;6.610;2023-04-28T04:50:55;9.50;99.90
16384;DHT22;8301;51.440;6.610;2023-04-28T04:53:22;9.50;99.90
16384;DHT22;8301;51.440;6.610;2023-04-28T04:55:50;9.50;99.90
16384;DHT22;8301;51.440;6.610;2023-04-28T04:58:17;9.60;99.90
16384;DHT22;8301;51.440;6.610;2023-04-28T05:00:44;9.50;99.90
16384;DHT22;8301;51.440;6.610;2023-04-28T05:03:10;9.60;99.90
16384;DHT22;8301;51.440;6.610;2023-04-28T05:05:37;9.60;99.90
16384;DHT22;8301;51.440;6.610;2023-04-28T05:08:04;9.60;99.90
16384;DHT22;8301;51.440;6.610;2023-04-28T05:10:32;9.70;99.90
16384;DHT22;8301;51.440;6.610;2023-04-28T05:12:59;9.70;99.90
16384;DHT22;8301;51.440;6.610;2023-04-28T05:15:26;9.70;99.90
16384;DHT22;8301;51.440;6.610;2023-04-28T05:17:53;9.80;99.90
16384;DHT22;8301;51.440;6.610;2023-04-28T05:20:19;9.80;99.90
16384;DHT22;8301;51.440;6.610;2023-04-28T05:22:46;9.80;99.90
16384;DHT22;8301;51.440;6.610;2023-04-28T05:25:13;9.80;99.90
16384;DHT22;8301;51.440;6.610;2023-04-28T05:27:40;9.80;99.90
16384;DHT22;8301;51.440;6.610;2023-04-28T05:30:07;9.90;99.90
16384;DHT22;8301;51.440;6.610;2023-04-28T05:32:36;9.90;99.90
16384;DHT22;8301;51.440;6.610;2023-04-28T05:35:04;10.00;99.90
16384;DHT22;8301;51.440;6.610;2023-04-28T05:37:31;10.00;99.90
16384;DHT22;8301;51.440;6.610;2023-04-28T05:39:58;10.10;99.90
16384;DHT22;8301;51.440;6.610;2023-04-28T05:42:24;10.00;99.90
16384;DHT22;8301;51.440;6.610;2023-04-28T05:44:51;10.10;99.90
16384;DHT22;8301;51.440;6.610;2023-04-28T05:47:18;10.10;99.90
16384;DHT22;8301;51.440;6.610;2023-04-28T05:49:45;10.10;99.90
16384;DHT22;8301;51.440;6.610;2023-04-28T05:52:12;10.10;99.90
16384;DHT22;8301;51.440;6.610;2023-04-28T05:54:38;10.20;99.90
16384;DHT22;8301;51.440;6.610;2023-04-28T05:57:05;10.20;99.90
16384;DHT22;8301;51.440;6.610;2023-04-28T05:59:33;10.20;99.90
16384;DHT22;8301;51.440;6.610;2023-04-28T06:01:59;10.20;99.90
16384;DHT22;8301;51.440;6.610;2023-04-28T06:04:26;10.20;99.90
16384;DHT22;8301;51.440;6.610;2023-04-28T06:06:53;10.20;99.90
16384;DHT22;8301;51.440;6.610;2023-04-28T06:09:20;10.20;99.90
16384;DHT22;8301;51.440;6.610;2023-04-28T06:11:47;10.30;99.90
16384;DHT22;8301;51.440;6.610;2023-04-28T06:14:13;10.30;99.90
16384;DHT22;8301;51.440;6.610;2023-04-28T06:16:40;10.30;99.90
16384;DHT22;8301;51.440;6.610;2023-04-28T06:19:07;10.30;99.90
16384;DHT22;8301;51.440;6.610;2023-04-28T06:21:34;10.40;99.90
16384;DHT22;8301;51.440;6.610;2023-04-28T06:24:01;10.40;99.90
16384;DHT22;8301;51.440;6.610;2023-04-28T06:26:28;10.50;99.90
16384;DHT22;8301;51.440;6.610;2023-04-28T06:28:55;10.50;99.90
16384;DHT22;8301;51.440;6.610;2023-04-28T06:31:22;10.60;99.90
16384;DHT22;8301;51.440;6.610;2023-04-28T06:33:50;10.60;99.90
16384;DHT22;8301;51.440;6.610;2023-04-28T06:36:17;10.70;99.90
16384;DHT22;8301;51.440;6.610;2023-04-28T06:38:44;10.70;99.90
16384;DHT22;8301;51.440;6.610;2023-04-28T06:41:11;10.80;99.90
16384;DHT22;8301;51.440;6.610;2023-04-28T06:43:38;10.80;99.90
16384;DHT22;8301;51.440;6.610;2023-04-28T06:46:05;10.90;99.90
16384;DHT22;8301;51.440;6.610;2023-04-28T06:48:34;10.90;99.90
16384;DHT22;8301;51.440;6.610;2023-04-28T06:51:01;11.00;99.90
16384;DHT22;8301;51.440;6.610;2023-04-28T06:53:28;11.20;99.90
16384;DHT22;8301;51.440;6.610;2023-04-28T06:55:55;11.30;99.90
16384;DHT22;8301;51.440;6.610;2023-04-28T06:58:21;11.30;99.90
16384;DHT22;8301;51.440;6.610;2023-04-28T07:00:48;11.40;99.90
16384;DHT22;8301;51.440;6.610;2023-04-28T07:03:15;11.50;99.90
16384;DHT22;8301;51.440;6.610;2023-04-28T07:05:42;11.60;99.90
16384;DHT22;8301;51.440;6.610;2023-04-28T07:08:09;11.80;99.90
16384;DHT22;8301;51.440;6.610;2023-04-28T07:10:36;11.90;99.90
16384;DHT22;8301;51.440;6.610;2023-04-28T07:13:02;11.90;99.90
16384;DHT22;8301;51.440;6.610;2023-04-28T07:15:29;12.00;99.90
16384;DHT22;8301;51.440;6.610;2023-04-28T07:17:57;12.00;99.90
16384;DHT22;8301;51.440;6.610;2023-04-28T07:20:24;12.10;99.90
16384;DHT22;8301;51.440;6.610;2023-04-28T07:22:51;12.20;99.90
16384;DHT22;8301;51.440;6.610;2023-04-28T07:25:17;12.30;99.90
16384;DHT22;8301;51.440;6.610;2023-04-28T07:27:44;12.30;99.90
16384;DHT22;8301;51.440;6.610;2023-04-28T07:30:12;12.30;99.90
16384;DHT22;8301;51.440;6.610;2023-04-28T07:32:38;12.30;99.90
16384;DHT22;8301;51.440;6.610;2023-04-28T07:35:05;12.40;99.90
16384;DHT22;8301;51.440;6.610;2023-04-28T07:37:32;12.50;99.90
16384;DHT22;8301;51.440;6.610;2023-04-28T07:39:59;12.50;99.90
16384;DHT22;8301;51.440;6.610;2023-04-28T07:42:26;12.60;99.90
16384;DHT22;8301;51.440;6.610;2023-04-28T07:44:53;12.60;99.90
16384;DHT22;8301;51.440;6.610;2023-04-28T07:47:19;12.50;99.90
16384;DHT22;8301;51.440;6.610;2023-04-28T07:49:47;12.40;99.90
16384;DHT22;8301;51.440;6.610;2023-04-28T07:52:13;12.50;99.90
16384;DHT22;8301;51.440;6.610;2023-04-28T07:54:41;12.50;99.90
16384;DHT22;8301;51.440;6.610;2023-04-28T07:57:07;12.50;99.90
16384;DHT22;8301;51.440;6.610;2023-04-28T07:59:35;12.70;99.90
16384;DHT22;8301;51.440;6.610;2023-04-28T08:04:35;12.80;99.90
16384;DHT22;8301;51.440;6.610;2023-04-28T08:07:03;12.80;99.90
16384;DHT22;8301;51.440;6.610;2023-04-28T08:09:30;13.00;99.90
16384;DHT22;8301;51.440;6.610;2023-04-28T08:11:57;13.00;99.90
16384;DHT22;8301;51.440;6.610;2023-04-28T08:14:24;13.10;99.90
16384;DHT22;8301;51.440;6.610;2023-04-28T08:16:51;13.20;99.90
16384;DHT22;8301;51.440;6.610;2023-04-28T08:19:18;13.30;99.90
16384;DHT22;8301;51.440;6.610;2023-04-28T08:21:45;13.30;99.90
16384;DHT22;8301;51.440;6.610;2023-04-28T08:24:11;13.20;99.90
16384;DHT22;8301;51.440;6.610;2023-04-28T08:26:39;13.30;99.90
16384;DHT22;8301;51.440;6.610;2023-04-28T08:29:07;13.30;99.90
16384;DHT22;8301;51.440;6.610;2023-04-28T08:31:34;13.40;99.90
16384;DHT22;8301;51.440;6.610;2023-04-28T08:34:01;13.60;99.90
16384;DHT22;8301;51.440;6.610;2023-04-28T08:36:27;13.80;99.90
16384;DHT22;8301;51.440;6.610;2023-04-28T08:38:57;13.90;99.90
16384;DHT22;8301;51.440;6.610;2023-04-28T08:41:24;13.80;99.90
16384;DHT22;8301;51.440;6.610;2023-04-28T08:43:53;13.90;99.90
16384;DHT22;8301;51.440;6.610;2023-04-28T08:46:20;13.80;99.90
16384;DHT22;8301;51.440;6.610;2023-04-28T08:48:48;13.70;99.90
16384;DHT22;8301;51.440;6.610;2023-04-28T08:51:15;13.80;99.90
16384;DHT22;8301;51.440;6.610;2023-04-28T08:53:43;13.80;99.90
16384;DHT22;8301;51.440;6.610;2023-04-28T08:56:10;13.80;99.90
16384;DHT22;8301;51.440;6.610;2023-04-28T08:58:39;13.80;99.90
16384;DHT22;8301;51.440;6.610;2023-04-28T09:01:07;13.70;99.90
16384;DHT22;8301;51.440;6.610;2023-04-28T09:03:34;13.60;99.90
16384;DHT22;8301;51.440;6.610;2023-04-28T09:06:01;13.80;99.90
16384;DHT22;8301;51.440;6.610;2023-04-28T09:08:28;14.00;99.90
16384;DHT22;8301;51.440;6.610;2023-04-28T09:11:05;14.00;99.90
16384;DHT22;8301;51.440;6.610;2023-04-28T09:13:29;14.10;99.90
16384;DHT22;8301;51.440;6.610;2023-04-28T09:16:01;14.20;99.90
16384;DHT22;8301;51.440;6.610;2023-04-28T09:18:28;14.20;99.90
16384;DHT22;8301;51.440;6.610;2023-04-28T09:21:09;14.10;99.90
16384;DHT22;8301;51.440;6.610;2023-04-28T09:23:47;14.10;99.90
16384;DHT22;8301;51.440;6.610;2023-04-28T09:26:16;14.10;99.90
16384;DHT22;8301;51.440;6.610;2023-04-28T09:28:44;14.20;99.90
16384;DHT22;8301;51.440;6.610;2023-04-28T09:31:23;14.10;99.90
16384;DHT22;8301;51.440;6.610;2023-04-28T09:33:56;14.10;99.90
16384;DHT22;8301;51.440;6.610;2023-04-28T09:36:26;14.20;99.90
16384;DHT22;8301;51.440;6.610;2023-04-28T09:38:58;14.50;99.90
16384;DHT22;8301;51.440;6.610;2023-04-28T09:44:17;14.70;99.90
16384;DHT22;8301;51.440;6.610;2023-04-28T09:46:41;14.40;99.90
16384;DHT22;8301;51.440;6.610;2023-04-28T09:49:09;14.30;99.90
16384;DHT22;8301;51.440;6.610;2023-04-28T09:51:36;14.30;99.90
16384;DHT22;8301;51.440;6.610;2023-04-28T09:54:04;14.30;99.90
16384;DHT22;8301;51.440;6.610;2023-04-28T09:56:31;14.20;99.90
16384;DHT22;8301;51.440;6.610;2023-04-28T09:58:59;14.40;99.90
16384;DHT22;8301;51.440;6.610;2023-04-28T10:01:27;14.40;99.90
16384;DHT22;8301;51.440;6.610;2023-04-28T10:03:54;14.30;99.90
16384;DHT22;8301;51.440;6.610;2023-04-28T10:06:24;14.30;99.90
16384;DHT22;8301;51.440;6.610;2023-04-28T10:08:52;14.30;99.90
16384;DHT22;8301;51.440;6.610;2023-04-28T10:11:22;14.30;99.90
16384;DHT22;8301;51.440;6.610;2023-04-28T10:13:50;14.40;99.90
16384;DHT22;8301;51.440;6.610;2023-04-28T10:16:18;14.40;99.90
16384;DHT22;8301;51.440;6.610;2023-04-28T10:18:45;14.30;99.90
16384;DHT22;8301;51.440;6.610;2023-04-28T10:21:16;14.30;99.90
16384;DHT22;8301;51.440;6.610;2023-04-28T10:23:58;14.30;99.90
16384;DHT22;8301;51.440;6.610;2023-04-28T10:26:20;14.40;99.90
16384;DHT22;8301;51.440;6.610;2023-04-28T10:28:49;14.50;99.90
16384;DHT22;8301;51.440;6.610;2023-04-28T10:31:17;14.50;99.90
16384;DHT22;8301;51.440;6.610;2023-04-28T10:33:47;14.60;99.90
16384;DHT22;8301;51.440;6.610;2023-04-28T10:39:10;14.50;99.90
16384;DHT22;8301;51.440;6.610;2023-04-28T10:41:40;14.50;99.90
16384;DHT22;8301;51.440;6.610;2023-04-28T10:46:59;14.40;99.90
16384;DHT22;8301;51.440;6.610;2023-04-28T10:49:45;14.30;99.90
16384;DHT22;8301;51.440;6.610;2023-04-28T10:51:51;14.40;99.90
16384;DHT22;8301;51.440;6.610;2023-04-28T10:54:18;14.30;99.90
16384;DHT22;8301;51.440;6.610;2023-04-28T10:57:13;14.40;99.90
16384;DHT22;8301;51.440;6.610;2023-04-28T10:59:25;14.30;99.90
16384;DHT22;8301;51.440;6.610;2023-04-28T11:01:53;14.40;99.90
16384;DHT22;8301;51.440;6.610;2023-04-28T11:04:20;14.20;99.90
16384;DHT22;8301;51.440;6.610;2023-04-28T11:07:07;13.90;99.90
16384;DHT22;8301;51.440;6.610;2023-04-28T11:14:32;14.10;99.90
16384;DHT22;8301;51.440;6.610;2023-04-28T11:17:00;14.10;99.90
16384;DHT22;8301;51.440;6.610;2023-04-28T11:19:34;14.30;99.90
16384;DHT22;8301;51.440;6.610;2023-04-28T11:22:03;14.30;99.90
16384;DHT22;8301;51.440;6.610;2023-04-28T11:24:31;14.40;99.90
16384;DHT22;8301;51.440;6.610;2023-04-28T11:26:58;14.30;99.90
16384;DHT22;8301;51.440;6.610;2023-04-28T11:29:32;14.10;99.90
16384;DHT22;8301;51.440;6.610;2023-04-28T11:32:01;14.10;99.90
16384;DHT22;8301;51.440;6.610;2023-04-28T11:34:28;14.30;99.90
16384;DHT22;8301;51.440;6.610;2023-04-28T11:36:55;14.50;99.90
16384;DHT22;8301;51.440;6.610;2023-04-28T11:39:32;14.60;99.90
16384;DHT22;8301;51.440;6.610;2023-04-28T11:42:00;14.60;99.90
16384;DHT22;8301;51.440;6.610;2023-04-28T11:44:29;14.70;99.90
16384;DHT22;8301;51.440;6.610;2023-04-28T11:46:56;14.60;99.90
16384;DHT22;8301;51.440;6.610;2023-04-28T11:49:40;14.70;99.90
16384;DHT22;8301;51.440;6.610;2023-04-28T11:51:56;14.70;99.90
16384;DHT22;8301;51.440;6.610;2023-04-28T11:54:25;14.90;99.90
16384;DHT22;8301;51.440;6.610;2023-04-28T11:56:53;15.10;99.90
16384;DHT22;8301;51.440;6.610;2023-04-28T11:59:25;15.10;99.90
16384;DHT22;8301;51.440;6.610;2023-04-28T12:01:53;15.10;99.90
16384;DHT22;8301;51.440;6.610;2023-04-28T12:04:30;15.10;99.90
16384;DHT22;8301;51.440;6.610;2023-04-28T12:06:57;15.00;99.90
16384;DHT22;8301;51.440;6.610;2023-04-28T12:09:17;15.10;99.90
16384;DHT22;8301;51.440;6.610;2023-04-28T12:11:53;15.10;99.90
16384;DHT22;8301;51.440;6.610;2023-04-28T12:14:20;15.00;99.90
16384;DHT22;8301;51.440;6.610;2023-04-28T12:16:47;15.10;99.90
16384;DHT22;8301;51.440;6.610;2023-04-28T12:19:15;15.20;99.90
16384;DHT22;8301;51.440;6.610;2023-04-28T12:21:43;15.30;99.90
16384;DHT22;8301;51.440;6.610;2023-04-28T12:24:16;15.40;99.90
16384;DHT22;8301;51.440;6.610;2023-04-28T12:26:44;15.70;99.90
16384;DHT22;8301;51.440;6.610;2023-04-28T12:31:59;16.30;99.90
16384;DHT22;8301;51.440;6.610;2023-04-28T12:34:26;16.60;99.90
16384;DHT22;8301;51.440;6.610;2023-04-28T12:37:00;16.70;99.90
16384;DHT22;8301;51.440;6.610;2023-04-28T12:39:27;17.50;99.90
16384;DHT22;8301;51.440;6.610;2023-04-28T12:41:54;17.50;99.90
16384;DHT22;8301;51.440;6.610;2023-04-28T12:44:20;17.40;99.90
16384;DHT22;8301;51.440;6.610;2023-04-28T12:46:47;17.70;99.90
16384;DHT22;8301;51.440;6.610;2023-04-28T12:49:14;17.50;99.90
16384;DHT22;8301;51.440;6.610;2023-04-28T12:51:42;17.20;99.90
16384;DHT22;8301;51.440;6.610;2023-04-28T12:54:09;17.10;99.90
16384;DHT22;8301;51.440;6.610;2023-04-28T12:56:39;17.10;99.90
16384;DHT22;8301;51.440;6.610;2023-04-28T12:59:07;17.00;99.90
16384;DHT22;8301;51.440;6.610;2023-04-28T13:01:36;16.90;99.90
16384;DHT22;8301;51.440;6.610;2023-04-28T13:04:03;16.80;99.90
16384;DHT22;8301;51.440;6.610;2023-04-28T13:06:30;16.80;99.90
16384;DHT22;8301;51.440;6.610;2023-04-28T13:08:57;17.00;99.90
16384;DHT22;8301;51.440;6.610;2023-04-28T13:11:24;17.00;99.90
16384;DHT22;8301;51.440;6.610;2023-04-28T13:13:52;17.20;99.90
16384;DHT22;8301;51.440;6.610;2023-04-28T13:16:21;17.20;99.90
16384;DHT22;8301;51.440;6.610;2023-04-28T13:18:52;17.60;99.90
16384;DHT22;8301;51.440;6.610;2023-04-28T13:21:19;18.00;99.90
16384;DHT22;8301;51.440;6.610;2023-04-28T13:23:46;18.00;99.90
16384;DHT22;8301;51.440;6.610;2023-04-28T13:26:13;18.40;99.90
16384;DHT22;8301;51.440;6.610;2023-04-28T13:28:40;18.30;1.00
16384;DHT22;8301;51.440;6.610;2023-04-28T13:31:07;18.30;99.90
16384;DHT22;8301;51.440;6.610;2023-04-28T13:33:34;18.30;99.90
16384;DHT22;8301;51.440;6.610;2023-04-28T13:36:01;18.10;99.90
16384;DHT22;8301;51.440;6.610;2023-04-28T13:38:28;18.10;1.00
16384;DHT22;8301;51.440;6.610;2023-04-28T13:40:54;18.00;1.00
16384;DHT22;8301;51.440;6.610;2023-04-28T13:43:21;17.90;1.00
16384;DHT22;8301;51.440;6.610;2023-04-28T13:45:48;17.90;99.90
16384;DHT22;8301;51.440;6.610;2023-04-28T13:48:15;18.00;99.90
16384;DHT22;8301;51.440;6.610;2023-04-28T13:50:42;17.90;99.90
16384;DHT22;8301;51.440;6.610;2023-04-28T13:53:10;17.80;99.90
16384;DHT22;8301;51.440;6.610;2023-04-28T13:55:44;17.80;99.90
16384;DHT22;8301;51.440;6.610;2023-04-28T13:58:17;17.80;99.90
16384;DHT22;8301;51.440;6.610;2023-04-28T14:00:44;17.80;99.90
16384;DHT22;8301;51.440;6.610;2023-04-28T14:03:11;18.00;1.00
16384;DHT22;8301;51.440;6.610;2023-04-28T14:05:38;17.80;1.00
16384;DHT22;8301;51.440;6.610;2023-04-28T14:08:11;18.00;1.00
16384;DHT22;8301;51.440;6.610;2023-04-28T14:10:38;18.30;99.90
16384;DHT22;8301;51.440;6.610;2023-04-28T14:13:06;18.60;99.90
16384;DHT22;8301;51.440;6.610;2023-04-28T14:15:34;18.50;1.00
16384;DHT22;8301;51.440;6.610;2023-04-28T14:18:01;18.30;99.90
16384;DHT22;8301;51.440;6.610;2023-04-28T14:20:28;18.10;1.00
16384;DHT22;8301;51.440;6.610;2023-04-28T14:25:23;17.90;99.90
16384;DHT22;8301;51.440;6.610;2023-04-28T14:30:17;19.10;99.90
16384;DHT22;8301;51.440;6.610;2023-04-28T14:32:44;17.30;99.90
16384;DHT22;8301;51.440;6.610;2023-04-28T14:35:11;17.30;99.90
16384;DHT22;8301;51.440;6.610;2023-04-28T14:37:45;17.40;25.70
16384;DHT22;8301;51.440;6.610;2023-04-28T14:40:08;17.40;1.00
16384;DHT22;8301;51.440;6.610;2023-04-28T14:42:35;17.30;1.00
16384;DHT22;8301;51.440;6.610;2023-04-28T14:45:03;17.30;99.90
16384;DHT22;8301;51.440;6.610;2023-04-28T14:47:30;17.10;1.00
16384;DHT22;8301;51.440;6.610;2023-04-28T14:50:03;17.00;98.30
16384;DHT22;8301;51.440;6.610;2023-04-28T14:52:30;16.70;99.90
16384;DHT22;8301;51.440;6.610;2023-04-28T14:54:59;16.40;99.90
16384;DHT22;8301;51.440;6.610;2023-04-28T14:57:27;16.20;99.90
16384;DHT22;8301;51.440;6.610;2023-04-28T14:59:54;16.30;99.90
16384;DHT22;8301;51.440;6.610;2023-04-28T15:02:25;16.30;99.90
16384;DHT22;8301;51.440;6.610;2023-04-28T15:04:54;16.10;99.90
16384;DHT22;8301;51.440;6.610;2023-04-28T15:07:21;15.80;99.90
16384;DHT22;8301;51.440;6.610;2023-04-28T15:09:49;15.60;99.90
16384;DHT22;8301;51.440;6.610;2023-04-28T15:12:16;15.60;99.90
16384;DHT22;8301;51.440;6.610;2023-04-28T15:14:43;15.70;99.90
16384;DHT22;8301;51.440;6.610;2023-04-28T15:17:10;15.40;99.90
16384;DHT22;8301;51.440;6.610;2023-04-28T15:19:37;15.50;99.90
16384;DHT22;8301;51.440;6.610;2023-04-28T15:22:04;15.60;99.90
16384;DHT22;8301;51.440;6.610;2023-04-28T15:24:31;15.40;99.90
16384;DHT22;8301;51.440;6.610;2023-04-28T15:26:57;15.40;29.70
16384;DHT22;8301;51.440;6.610;2023-04-28T15:29:24;15.40;99.90
16384;DHT22;8301;51.440;6.610;2023-04-28T15:31:51;15.40;1.00
16384;DHT22;8301;51.440;6.610;2023-04-28T15:34:18;15.60;99.90
16384;DHT22;8301;51.440;6.610;2023-04-28T15:36:45;15.80;1.00
16384;DHT22;8301;51.440;6.610;2023-04-28T15:39:12;16.00;99.90
16384;DHT22;8301;51.440;6.610;2023-04-28T15:41:40;16.30;1.00
16384;DHT22;8301;51.440;6.610;2023-04-28T15:44:08;16.40;1.00
16384;DHT22;8301;51.440;6.610;2023-04-28T15:46:35;16.20;1.00
16384;DHT22;8301;51.440;6.610;2023-04-28T15:49:03;16.00;1.00
16384;DHT22;8301;51.440;6.610;2023-04-28T15:51:29;15.90;1.00
16384;DHT22;8301;51.440;6.610;2023-04-28T15:53:57;15.80;1.00
16384;DHT22;8301;51.440;6.610;2023-04-28T15:56:24;15.80;1.00
16384;DHT22;8301;51.440;6.610;2023-04-28T15:58:51;15.80;1.00
16384;DHT22;8301;51.440;6.610;2023-04-28T16:01:18;15.70;1.00
16384;DHT22;8301;51.440;6.610;2023-04-28T16:03:46;15.70;1.00
16384;DHT22;8301;51.440;6.610;2023-04-28T16:06:16;15.60;99.90
16384;DHT22;8301;51.440;6.610;2023-04-28T16:08:45;15.50;1.00
16384;DHT22;8301;51.440;6.610;2023-04-28T16:11:15;15.50;99.90
16384;DHT22;8301;51.440;6.610;2023-04-28T16:13:44;15.40;1.00
16384;DHT22;8301;51.440;6.610;2023-04-28T16:16:11;15.30;1.00
16384;DHT22;8301;51.440;6.610;2023-04-28T16:18:38;15.40;99.90